Time;durP1;ratioP1;P1;durP2;ratioP2;P2;SDS_P1;SDS_P2;PMS_P1;PMS_P2;Temp;Humidity;BMP_temperature;BMP_pressure;BME280_temperature;BME280_humidity;BME280_pressure;Samples;Min_cycle;Max_cycle;Signal;HPM_P1;HPM_P2
2024/01/08 00:01:33;;;;;;;7.45;4.10;;;0.50;99.90;;;;;;5055489;28;20127;-82
2024/01/08 00:03:59;;;;;;;7.57;3.83;;;0.20;99.90;;;;;;5056615;28;20067;-81
2024/01/08 00:06:25;;;;;;;8.85;4.13;;;0.40;99.90;;;;;;5072347;28;20653;-81
2024/01/08 00:08:51;;;;;;;8.23;4.38;;;0.20;99.90;;;;;;5060540;28;20079;-82
2024/01/08 00:11:17;;;;;;;8.05;4.22;;;0.10;99.90;;;;;;5054953;28;20480;-81
2024/01/08 00:13:43;;;;;;;8.63;4.30;;;0.10;99.90;;;;;;5065187;28;20128;-82
2024/01/08 00:16:09;;;;;;;10.57;4.85;;;0.10;99.90;;;;;;5067505;28;20510;-81
2024/01/08 00:18:34;;;;;;;8.27;4.55;;;0.10;99.90;;;;;;5074657;28;20037;-81
2024/01/08 00:21:02;;;;;;;10.55;5.13;;;0.00;99.90;;;;;;5069609;28;20063;-82
2024/01/08 00:23:29;;;;;;;8.57;4.85;;;0.00;99.90;;;;;;5055354;28;20408;-81
2024/01/08 00:25:55;;;;;;;8.80;4.40;;;0.00;99.90;;;;;;5057796;28;20048;-81
2024/01/08 00:28:21;;;;;;;10.57;5.03;;;0.00;99.90;;;;;;5057980;28;20476;-81
2024/01/08 00:30:47;;;;;;;9.07;4.90;;;0.00;99.90;;;;;;5072580;28;20506;-81
2024/01/08 00:33:13;;;;;;;7.20;3.90;;;0.00;99.90;;;;;;5061128;28;20056;-81
2024/01/08 00:35:38;;;;;;;12.55;4.47;;;-0.10;99.90;;;;;;5063445;28;20123;-81
2024/01/08 00:38:04;;;;;;;9.48;4.07;;;1.00;99.90;;;;;;5064581;28;20072;-81
2024/01/08 00:40:31;;;;;;;9.48;4.00;;;-0.20;99.90;;;;;;5055066;28;20404;-82
2024/01/08 00:42:57;;;;;;;9.43;4.63;;;-0.20;99.90;;;;;;5061625;28;20087;-82
2024/01/08 00:45:23;;;;;;;8.85;4.55;;;-0.20;99.90;;;;;;5074821;28;20124;-81
2024/01/08 00:47:49;;;;;;;10.18;4.45;;;-0.20;99.90;;;;;;5073649;28;20119;-82
2024/01/08 00:50:15;;;;;;;10.27;4.85;;;0.70;99.90;;;;;;5069877;28;20043;-82
2024/01/08 00:52:41;;;;;;;7.65;4.18;;;0.30;99.90;;;;;;5068496;28;20052;-82
2024/01/08 00:55:08;;;;;;;9.43;4.35;;;0.40;99.90;;;;;;5065174;28;20412;-82
2024/01/08 00:57:34;;;;;;;9.38;4.30;;;-0.30;99.90;;;;;;5058012;28;20059;-82
2024/01/08 01:00:00;;;;;;;8.23;4.38;;;-0.30;99.90;;;;;;5053531;28;20056;-82
2024/01/08 01:02:26;;;;;;;10.43;4.50;;;-0.30;99.90;;;;;;5053196;28;20049;-81
2024/01/08 01:04:51;;;;;;;10.40;4.97;;;-0.40;99.90;;;;;;5059269;28;20051;-82
2024/01/08 01:07:17;;;;;;;9.93;4.57;;;0.20;99.90;;;;;;5071369;28;20052;-82
2024/01/08 01:09:43;;;;;;;10.93;5.28;;;-0.40;99.90;;;;;;5052478;28;20500;-82
2024/01/08 01:12:09;;;;;;;12.18;5.38;;;-0.30;99.90;;;;;;5058723;28;20036;-82
2024/01/08 01:14:35;;;;;;;10.10;5.15;;;-0.30;99.90;;;;;;5071917;28;20182;-82
2024/01/08 01:17:01;;;;;;;12.35;5.22;;;-0.30;99.90;;;;;;5068521;28;20123;-81
2024/01/08 01:19:26;;;;;;;11.23;4.97;;;-0.20;99.90;;;;;;5063325;28;20052;-81
2024/01/08 01:21:53;;;;;;;9.23;4.78;;;0.30;99.90;;;;;;5053499;28;20052;-82
2024/01/08 01:24:19;;;;;;;10.02;4.93;;;-0.30;99.90;;;;;;5053706;28;20057;-82
2024/01/08 01:26:44;;;;;;;9.32;5.15;;;0.20;99.90;;;;;;5053750;28;20045;-83
2024/01/08 01:29:11;;;;;;;10.05;4.47;;;0.10;99.90;;;;;;5052747;28;20049;-82
2024/01/08 01:31:36;;;;;;;9.77;5.05;;;-0.30;99.90;;;;;;5053339;28;20052;-81
2024/01/08 01:34:03;;;;;;;8.55;4.03;;;-0.30;99.90;;;;;;5053811;28;20055;-82
2024/01/08 01:36:34;;;;;;;8.93;4.25;;;-0.30;99.90;;;;;;5053682;28;20073;-83
2024/01/08 01:39:03;;;;;;;9.57;4.95;;;-0.30;99.90;;;;;;5053941;28;20044;-82
2024/01/08 01:41:29;;;;;;;11.63;4.70;;;-0.30;99.90;;;;;;5061544;28;20052;-83
2024/01/08 01:43:55;;;;;;;8.52;4.38;;;-0.30;99.90;;;;;;5070076;28;20067;-82
2024/01/08 01:46:47;;;;;;;8.70;4.43;;;-0.30;99.90;;;;;;5061411;28;20154;-83
2024/01/08 01:49:18;;;;;;;10.88;4.40;;;-0.20;99.90;;;;;;5057871;28;20057;-82
2024/01/08 01:51:46;;;;;;;13.35;5.38;;;-0.30;99.90;;;;;;5053609;28;20049;-83
2024/01/08 01:54:18;;;;;;;11.65;5.32;;;-0.20;99.90;;;;;;5057108;28;20122;-82
2024/01/08 01:56:48;;;;;;;9.60;5.00;;;0.10;99.90;;;;;;5069416;28;20044;-83
2024/01/08 01:59:16;;;;;;;10.05;4.95;;;-0.30;99.90;;;;;;5053689;28;20049;-82
2024/01/08 02:01:43;;;;;;;10.10;4.78;;;-0.20;99.90;;;;;;5051922;28;20046;-83
2024/01/08 02:04:09;;;;;;;11.43;5.47;;;-0.20;99.90;;;;;;5067025;28;20447;-82
2024/01/08 02:06:37;;;;;;;9.27;4.40;;;1.10;99.90;;;;;;5052017;28;20048;-81
2024/01/08 02:09:03;;;;;;;8.80;4.95;;;-0.20;99.90;;;;;;5062908;28;20118;-82
2024/01/08 02:11:29;;;;;;;10.02;4.85;;;-0.20;99.90;;;;;;5052199;28;20040;-83
2024/01/08 02:13:55;;;;;;;10.15;5.20;;;-0.20;99.90;;;;;;5051582;28;20049;-81
2024/01/08 02:16:21;;;;;;;10.40;5.05;;;-0.20;99.90;;;;;;5052737;28;20053;-82
2024/01/08 02:18:46;;;;;;;10.98;5.80;;;-0.20;99.90;;;;;;5066358;28;20047;-82
2024/01/08 02:21:12;;;;;;;10.40;5.35;;;-0.10;99.90;;;;;;5063990;28;20114;-83
2024/01/08 02:23:38;;;;;;;11.55;5.65;;;-0.20;99.90;;;;;;5035467;28;20127;-82
2024/01/08 02:26:04;;;;;;;12.80;5.88;;;-0.20;99.90;;;;;;5051837;28;20127;-83
2024/01/08 02:28:30;;;;;;;10.00;5.28;;;0.90;99.90;;;;;;5052652;28;20503;-83
2024/01/08 02:30:56;;;;;;;9.60;5.25;;;0.90;99.90;;;;;;5053033;28;20041;-82
2024/01/08 02:33:22;;;;;;;9.23;5.07;;;-0.20;99.90;;;;;;5070812;28;20491;-83
2024/01/08 02:35:49;;;;;;;10.43;5.57;;;-0.20;99.90;;;;;;5070270;28;20090;-83
2024/01/08 02:38:14;;;;;;;11.93;5.43;;;-0.10;99.90;;;;;;5052425;28;20491;-82
2024/01/08 02:40:43;;;;;;;13.30;5.82;;;-0.10;99.90;;;;;;5056163;28;20128;-83
2024/01/08 02:43:09;;;;;;;10.77;5.47;;;-0.20;99.90;;;;;;5068052;28;20154;-83
2024/01/08 02:45:34;;;;;;;12.75;6.63;;;-0.20;99.90;;;;;;5053938;28;20075;-82
2024/01/08 02:48:00;;;;;;;10.25;5.15;;;-0.20;99.90;;;;;;5066439;28;20053;-84
2024/01/08 02:50:25;;;;;;;9.43;5.43;;;-0.10;99.90;;;;;;5073144;28;20371;-82
2024/01/08 02:52:51;;;;;;;10.68;5.72;;;-0.10;99.90;;;;;;5063626;28;20044;-83
2024/01/08 02:55:17;;;;;;;11.05;5.68;;;0.20;99.90;;;;;;5054454;28;20404;-83
2024/01/08 02:57:43;;;;;;;13.38;5.60;;;-0.10;99.90;;;;;;5030873;28;20049;-81
2024/01/08 03:00:09;;;;;;;17.52;6.43;;;0.30;99.90;;;;;;5056403;28;20087;-83
2024/01/08 03:02:36;;;;;;;12.60;5.47;;;-0.10;99.90;;;;;;5052706;28;20074;-82
2024/01/08 03:05:01;;;;;;;11.27;5.43;;;-0.10;99.90;;;;;;5051014;28;20053;-83
2024/01/08 03:07:27;;;;;;;13.93;6.07;;;1.00;99.90;;;;;;5053614;28;20056;-83
2024/01/08 03:09:57;;;;;;;9.70;4.85;;;0.00;99.90;;;;;;5071481;28;20049;-83
2024/01/08 03:12:25;;;;;;;11.68;5.60;;;0.00;99.90;;;;;;5056327;28;20072;-83
2024/01/08 03:14:52;;;;;;;13.10;6.03;;;0.90;99.90;;;;;;5059621;28;20098;-82
2024/01/08 03:17:18;;;;;;;11.05;5.80;;;0.00;99.90;;;;;;5061522;28;20049;-83
2024/01/08 03:19:44;;;;;;;11.68;5.07;;;0.40;99.90;;;;;;5040704;28;20400;-83
2024/01/08 03:22:09;;;;;;;8.88;4.30;;;-0.10;99.90;;;;;;5048667;28;20476;-82
2024/01/08 03:24:36;;;;;;;11.55;5.28;;;-0.10;99.90;;;;;;5072651;28;20048;-82
2024/01/08 03:27:02;;;;;;;12.30;6.00;;;-0.10;99.90;;;;;;5058942;28;20044;-83
2024/01/08 03:29:28;;;;;;;9.85;4.82;;;-0.10;99.90;;;;;;5056435;28;20059;-83
2024/01/08 03:31:54;;;;;;;10.25;4.82;;;0.60;99.90;;;;;;5058689;28;20391;-83
2024/01/08 03:34:20;;;;;;;10.10;4.47;;;-0.10;99.90;;;;;;5059615;28;20083;-83
2024/01/08 03:36:47;;;;;;;11.35;5.22;;;-0.10;99.90;;;;;;5066548;28;20056;-83
2024/01/08 03:39:17;;;;;;;7.13;4.53;;;1.00;99.90;;;;;;5059236;28;20048;-83
2024/01/08 03:41:43;;;;;;;9.32;4.80;;;-0.10;99.90;;;;;;5056766;28;20083;-84
2024/01/08 03:44:10;;;;;;;12.38;5.90;;;0.50;99.90;;;;;;5063373;28;20045;-82
2024/01/08 03:46:39;;;;;;;9.25;4.40;;;0.40;99.90;;;;;;5047215;28;20389;-82
2024/01/08 03:49:04;;;;;;;8.90;4.63;;;-0.20;99.90;;;;;;5061801;28;20117;-84
2024/01/08 03:51:31;;;;;;;9.75;5.00;;;-0.20;99.90;;;;;;5056249;28;20134;-83
2024/01/08 03:53:57;;;;;;;9.95;4.63;;;-0.20;99.90;;;;;;5055121;28;20128;-83
2024/01/08 03:56:22;;;;;;;11.07;5.32;;;-0.20;99.90;;;;;;5054928;28;20528;-83
2024/01/08 03:58:48;;;;;;;10.27;4.88;;;-0.20;99.90;;;;;;5038361;28;20071;-84
2024/01/08 04:01:14;;;;;;;8.20;3.90;;;-0.10;99.90;;;;;;5054262;28;20520;-84
2024/01/08 04:03:41;;;;;;;11.45;5.10;;;-0.20;99.90;;;;;;5064602;28;20553;-84
2024/01/08 04:06:08;;;;;;;8.40;4.07;;;-0.20;99.90;;;;;;5072539;28;20266;-83
2024/01/08 04:08:34;;;;;;;8.52;4.43;;;-0.20;99.90;;;;;;5070709;28;20052;-84
2024/01/08 04:11:00;;;;;;;9.52;4.70;;;-0.20;99.90;;;;;;5057346;28;20056;-84
2024/01/08 04:13:26;;;;;;;9.73;4.90;;;-0.30;99.90;;;;;;5056161;28;20048;-83
2024/01/08 04:15:51;;;;;;;9.73;4.70;;;-0.30;99.90;;;;;;5064407;28;20044;-83
2024/01/08 04:18:17;;;;;;;8.07;4.50;;;-0.30;99.90;;;;;;5066873;28;20109;-83
2024/01/08 04:20:43;;;;;;;10.38;4.57;;;-0.30;99.90;;;;;;5055129;28;20477;-83
2024/01/08 04:23:09;;;;;;;8.60;4.38;;;-0.30;99.90;;;;;;5059254;28;20084;-83
2024/01/08 04:25:34;;;;;;;7.68;4.25;;;-0.20;99.90;;;;;;5057675;28;20048;-84
2024/01/08 04:28:00;;;;;;;8.70;3.80;;;-0.40;99.90;;;;;;5053898;28;20116;-83
2024/01/08 04:30:26;;;;;;;7.40;3.83;;;-0.40;99.90;;;;;;5055345;28;20354;-82
2024/01/08 04:32:52;;;;;;;6.55;3.33;;;-0.40;99.90;;;;;;5067804;28;20086;-82
2024/01/08 04:35:18;;;;;;;7.95;4.40;;;-0.40;99.90;;;;;;5074770;28;20067;-84
2024/01/08 04:37:44;;;;;;;8.63;4.22;;;-0.40;99.90;;;;;;5066385;28;20045;-84
2024/01/08 04:40:10;;;;;;;7.95;4.35;;;-0.40;99.90;;;;;;5074258;28;20037;-83
2024/01/08 04:42:36;;;;;;;9.32;4.20;;;-0.40;99.90;;;;;;5045977;28;20049;-83
2024/01/08 04:45:03;;;;;;;8.02;4.18;;;-0.50;99.90;;;;;;5062847;28;20377;-84
2024/01/08 04:47:28;;;;;;;7.28;3.65;;;-0.50;99.90;;;;;;5054041;28;20049;-84
2024/01/08 04:49:54;;;;;;;9.63;4.20;;;-0.50;99.90;;;;;;5059176;28;20123;-84
2024/01/08 04:52:20;;;;;;;7.07;2.90;;;-0.50;99.90;;;;;;5064814;28;20481;-83
2024/01/08 04:54:46;;;;;;;6.95;3.55;;;-0.30;99.90;;;;;;5063404;28;20124;-83
2024/01/08 04:57:11;;;;;;;6.80;3.30;;;-0.50;99.90;;;;;;5054872;28;20044;-83
2024/01/08 04:59:41;;;;;;;7.10;3.13;;;0.40;99.90;;;;;;5072521;28;20052;-84
2024/01/08 05:02:10;;;;;;;7.38;3.65;;;-0.20;99.90;;;;;;5054341;28;20041;-83
2024/01/08 05:04:36;;;;;;;7.80;3.60;;;-0.60;99.90;;;;;;5054808;28;20051;-84
2024/01/08 05:07:03;;;;;;;7.25;2.92;;;0.10;99.90;;;;;;5069994;28;20076;-84
2024/01/08 05:09:32;;;;;;;6.97;3.28;;;-0.60;99.90;;;;;;5053253;28;20045;-83
2024/01/08 05:11:57;;;;;;;9.52;3.35;;;-0.60;99.90;;;;;;5050663;28;20057;-83
2024/01/08 05:14:24;;;;;;;8.20;3.55;;;-0.60;99.90;;;;;;5068902;28;20048;-83
2024/01/08 05:16:49;;;;;;;6.85;3.70;;;0.10;99.90;;;;;;5062572;28;20400;-84
2024/01/08 05:19:15;;;;;;;7.63;3.55;;;-0.60;99.90;;;;;;5069254;28;20059;-83
2024/01/08 05:21:41;;;;;;;8.25;4.00;;;-0.60;99.90;;;;;;5054503;28;20136;-84
2024/01/08 05:24:07;;;;;;;9.30;3.55;;;-0.50;99.90;;;;;;5064574;28;20054;-84
2024/01/08 05:26:33;;;;;;;5.75;3.20;;;0.20;99.90;;;;;;5067258;28;20055;-83
2024/01/08 05:28:59;;;;;;;7.15;3.42;;;-0.70;99.90;;;;;;5064024;28;20044;-83
2024/01/08 05:31:25;;;;;;;8.13;3.63;;;-0.70;99.90;;;;;;5068761;28;20041;-84
2024/01/08 05:33:50;;;;;;;9.45;4.00;;;0.20;99.90;;;;;;5036526;28;20543;-83
2024/01/08 05:36:19;;;;;;;10.02;3.70;;;0.30;99.90;;;;;;5052761;28;20041;-83
2024/01/08 05:38:46;;;;;;;7.63;3.60;;;-0.70;99.90;;;;;;5054198;28;20049;-84
2024/01/08 05:41:11;;;;;;;7.28;3.80;;;-0.70;99.90;;;;;;5054779;28;20045;-82
2024/01/08 05:43:40;;;;;;;10.30;3.97;;;-0.80;99.90;;;;;;5069871;28;20074;-84
2024/01/08 05:46:07;;;;;;;7.65;3.47;;;-0.80;99.90;;;;;;5062102;28;20408;-83
2024/01/08 05:48:39;;;;;;;9.25;4.60;;;-0.80;99.90;;;;;;5070748;28;20033;-83
2024/01/08 05:51:07;;;;;;;10.32;4.53;;;-0.80;99.90;;;;;;5042032;28;20037;-84
2024/01/08 05:53:33;;;;;;;8.35;4.00;;;-0.50;99.90;;;;;;5059137;28;20083;-83
2024/01/08 05:55:59;;;;;;;7.75;3.83;;;-0.80;99.90;;;;;;5041580;28;20045;-83
2024/01/08 05:58:25;;;;;;;8.57;3.95;;;-0.20;99.90;;;;;;5066837;28;20048;-84
2024/01/08 06:00:53;;;;;;;10.02;4.80;;;-0.70;99.90;;;;;;5044419;28;20044;-81
2024/01/08 06:03:22;;;;;;;11.38;4.47;;;0.00;99.90;;;;;;5062314;28;20079;-83
2024/01/08 06:05:49;;;;;;;10.65;4.30;;;-0.70;99.90;;;;;;5059417;28;20053;-83
2024/01/08 06:08:15;;;;;;;8.27;4.03;;;-0.70;99.90;;;;;;5055032;28;20041;-83
2024/01/08 06:10:41;;;;;;;9.45;3.95;;;-0.70;99.90;;;;;;5054338;28;20140;-81
2024/01/08 06:13:09;;;;;;;9.45;4.28;;;-0.70;99.90;;;;;;5054732;28;20480;-84
2024/01/08 06:15:35;;;;;;;6.55;3.28;;;-0.70;99.90;;;;;;5058506;28;20438;-83
2024/01/08 06:18:02;;;;;;;8.77;4.45;;;-0.60;99.90;;;;;;5060305;28;20052;-83
2024/01/08 06:20:28;;;;;;;11.05;4.20;;;-0.60;99.90;;;;;;5066133;28;20064;-83
2024/01/08 06:22:57;;;;;;;7.57;4.53;;;-0.60;99.90;;;;;;5040225;28;20053;-84
2024/01/08 06:25:23;;;;;;;9.15;4.22;;;-0.60;99.90;;;;;;5055136;28;20048;-82
2024/01/08 06:27:49;;;;;;;10.48;4.68;;;-0.40;99.90;;;;;;5070204;28;20044;-83
2024/01/08 06:30:17;;;;;;;9.35;4.07;;;-0.30;99.90;;;;;;5071848;28;20044;-83
2024/01/08 06:32:43;;;;;;;8.45;4.05;;;-0.50;99.90;;;;;;5068417;28;20041;-82
2024/01/08 06:35:09;;;;;;;8.68;4.05;;;-0.50;99.90;;;;;;5052694;28;20489;-81
2024/01/08 06:37:35;;;;;;;9.02;3.90;;;-0.50;99.90;;;;;;5051552;28;20045;-82
2024/01/08 06:40:01;;;;;;;8.02;3.72;;;0.30;99.90;;;;;;5066634;28;20098;-82
2024/01/08 06:42:27;;;;;;;9.38;3.90;;;-0.40;99.90;;;;;;5061393;28;20037;-82
2024/01/08 06:44:53;;;;;;;10.27;4.70;;;-0.40;99.90;;;;;;5054106;28;20049;-82
2024/01/08 06:47:19;;;;;;;7.82;3.50;;;-0.30;99.90;;;;;;5053356;28;20079;-83
2024/01/08 06:49:44;;;;;;;10.52;4.40;;;-0.50;99.90;;;;;;5054594;28;20389;-82
2024/01/08 06:52:10;;;;;;;9.93;4.03;;;-0.40;99.90;;;;;;5052861;28;20037;-82
2024/01/08 06:54:38;;;;;;;10.63;4.25;;;-0.40;99.90;;;;;;5060568;28;20131;-82
2024/01/08 06:57:04;;;;;;;9.15;3.83;;;-0.40;99.90;;;;;;5058763;28;20405;-82
2024/01/08 06:59:30;;;;;;;10.32;3.90;;;-0.40;99.90;;;;;;5047217;28;20114;-82
2024/01/08 07:01:55;;;;;;;8.60;3.80;;;-0.40;99.90;;;;;;5061263;28;20072;-81
2024/01/08 07:04:21;;;;;;;9.30;3.33;;;-0.40;99.90;;;;;;5053404;28;20052;-82
2024/01/08 07:06:47;;;;;;;9.65;3.95;;;-0.40;99.90;;;;;;5064084;28;20547;-82
2024/01/08 07:09:13;;;;;;;8.15;3.72;;;-0.40;99.90;;;;;;5055099;28;20045;-82
2024/01/08 07:11:39;;;;;;;10.43;3.65;;;-0.40;99.90;;;;;;5065012;28;20049;-82
2024/01/08 07:14:05;;;;;;;10.77;4.25;;;-0.40;99.90;;;;;;5060148;28;20036;-82
2024/01/08 07:16:30;;;;;;;8.27;4.47;;;-0.30;99.90;;;;;;5058314;28;20122;-82
2024/01/08 07:18:56;;;;;;;8.93;4.28;;;-0.30;99.90;;;;;;5064308;28;20135;-75
2024/01/08 07:21:22;;;;;;;11.30;4.03;;;-0.30;99.90;;;;;;5056844;28;20095;-77
2024/01/08 07:23:50;;;;;;;8.35;3.95;;;-0.30;99.90;;;;;;5054451;28;20759;-79
2024/01/08 07:26:16;;;;;;;8.15;4.07;;;-0.30;99.90;;;;;;5064228;28;20040;-77
2024/01/08 07:28:45;;;;;;;7.65;3.72;;;-0.30;99.90;;;;;;5062049;28;20036;-76
2024/01/08 07:31:12;;;;;;;9.23;3.75;;;-0.30;99.90;;;;;;5055078;28;20056;-78
2024/01/08 07:33:39;;;;;;;7.80;3.67;;;-0.30;99.90;;;;;;5056581;28;20045;-77
2024/01/08 07:36:06;;;;;;;9.77;4.00;;;0.20;99.90;;;;;;5055107;28;20080;-76
2024/01/08 07:38:31;;;;;;;12.43;4.15;;;-0.30;99.90;;;;;;5067698;28;20052;-76
2024/01/08 07:40:58;;;;;;;8.57;3.47;;;-0.30;99.90;;;;;;5071025;28;20400;-76
2024/01/08 07:43:24;;;;;;;7.13;3.75;;;0.70;99.90;;;;;;5063581;28;20049;-76
2024/01/08 07:45:50;;;;;;;6.93;3.22;;;-0.30;99.90;;;;;;5059741;28;20428;-76
2024/01/08 07:48:16;;;;;;;7.43;3.65;;;-0.20;99.90;;;;;;5069661;28;20049;-76
2024/01/08 07:50:42;;;;;;;8.82;3.92;;;0.20;99.90;;;;;;5055728;28;20507;-76
2024/01/08 07:53:08;;;;;;;10.95;3.50;;;-0.30;99.90;;;;;;5050362;28;20040;-76
2024/01/08 07:55:33;;;;;;;9.73;3.33;;;-0.20;99.90;;;;;;5067652;28;20423;-76
2024/01/08 07:57:59;;;;;;;7.72;3.30;;;0.80;99.90;;;;;;5071709;28;20043;-76
2024/01/08 08:00:25;;;;;;;11.40;4.00;;;0.00;99.90;;;;;;5070812;28;20041;-76
2024/01/08 08:02:51;;;;;;;8.27;4.20;;;-0.20;99.90;;;;;;5067711;28;20094;-76
2024/01/08 08:05:17;;;;;;;8.23;3.53;;;-0.20;99.90;;;;;;5054259;28;20076;-77
2024/01/08 08:07:42;;;;;;;9.32;3.47;;;-0.10;99.90;;;;;;5053688;28;20055;-77
2024/01/08 08:10:10;;;;;;;8.52;3.92;;;-0.10;99.90;;;;;;5061535;28;20053;-76
2024/01/08 08:12:35;;;;;;;10.15;3.80;;;-0.10;99.90;;;;;;5054784;28;20508;-76
2024/01/08 08:15:01;;;;;;;10.98;3.97;;;-0.10;99.90;;;;;;5054134;28;20056;-76
2024/01/08 08:17:27;;;;;;;8.70;3.97;;;-0.10;99.90;;;;;;5054914;28;20052;-76
2024/01/08 08:19:53;;;;;;;9.63;4.00;;;-0.10;99.90;;;;;;5054521;28;20037;-76
2024/01/08 08:22:19;;;;;;;7.35;3.33;;;0.50;99.90;;;;;;5072157;28;20065;-76
2024/01/08 08:24:47;;;;;;;9.02;3.97;;;-0.10;99.90;;;;;;5072786;28;20120;-76
2024/01/08 08:27:13;;;;;;;9.98;3.28;;;-0.10;99.90;;;;;;5074103;28;20048;-76
2024/01/08 08:29:48;;;;;;;9.30;3.65;;;1.00;99.90;;;;;;5057556;28;20041;-77
2024/01/08 08:32:15;;;;;;;9.93;4.00;;;0.00;99.90;;;;;;5068344;28;20045;-77
2024/01/08 08:34:42;;;;;;;8.23;3.50;;;0.00;99.90;;;;;;5074663;28;20037;-77
2024/01/08 08:37:10;;;;;;;9.73;3.20;;;1.00;99.90;;;;;;5073427;28;20056;-76
2024/01/08 08:39:37;;;;;;;10.55;3.67;;;0.00;99.90;;;;;;5060676;28;20515;-76
2024/01/08 08:42:04;;;;;;;7.85;3.53;;;0.00;99.90;;;;;;5066339;28;20080;-76
2024/01/08 08:44:29;;;;;;;8.93;3.60;;;0.00;99.90;;;;;;5074700;28;20131;-76
2024/01/08 08:46:55;;;;;;;7.93;3.25;;;0.00;99.90;;;;;;5074703;28;20202;-76
2024/01/08 08:49:21;;;;;;;11.45;3.80;;;0.90;99.90;;;;;;5065548;28;20052;-76
2024/01/08 08:51:46;;;;;;;10.60;3.63;;;0.00;99.90;;;;;;5053275;28;20041;-76
2024/01/08 08:54:12;;;;;;;9.27;3.30;;;0.00;99.90;;;;;;5070131;28;20170;-76
2024/01/08 08:56:42;;;;;;;7.80;3.00;;;0.10;99.90;;;;;;5075496;28;20055;-77
2024/01/08 08:59:08;;;;;;;8.93;3.08;;;0.10;99.90;;;;;;5084859;28;20043;-76
2024/01/08 09:01:34;;;;;;;5.90;2.33;;;0.10;99.90;;;;;;5094476;28;20044;-76
2024/01/08 09:04:00;;;;;;;8.07;2.60;;;0.10;99.90;;;;;;5079147;28;20052;-76
2024/01/08 09:06:33;;;;;;;7.10;3.38;;;0.10;99.90;;;;;;5073776;28;20508;-76
2024/01/08 09:08:59;;;;;;;6.85;2.55;;;0.10;99.90;;;;;;5074052;28;20064;-76
2024/01/08 09:11:25;;;;;;;5.80;2.60;;;0.20;99.90;;;;;;5073422;28;20041;-76
2024/01/08 09:13:51;;;;;;;6.90;2.08;;;0.10;99.90;;;;;;5058541;28;20052;-76
2024/01/08 09:16:18;;;;;;;8.23;2.40;;;0.90;99.90;;;;;;5053807;28;20049;-76
2024/01/08 09:18:45;;;;;;;7.03;2.47;;;0.00;99.90;;;;;;5054299;28;20051;-76
2024/01/08 09:21:12;;;;;;;7.93;2.25;;;0.00;99.90;;;;;;5056005;28;20534;-76
2024/01/08 09:23:39;;;;;;;7.53;2.80;;;0.90;99.90;;;;;;5065392;28;20044;-76
2024/01/08 09:26:05;;;;;;;6.45;2.67;;;0.00;99.90;;;;;;5053759;28;20126;-76
2024/01/08 09:28:32;;;;;;;9.20;2.80;;;0.10;99.90;;;;;;5053692;28;20036;-76
2024/01/08 09:31:00;;;;;;;7.40;2.67;;;0.10;99.90;;;;;;5053633;28;20052;-77
2024/01/08 09:33:26;;;;;;;6.75;2.40;;;0.10;99.90;;;;;;5053782;28;20053;-76
2024/01/08 09:35:51;;;;;;;7.40;2.58;;;0.10;99.90;;;;;;5067407;28;20061;-77
2024/01/08 09:38:17;;;;;;;12.68;5.15;;;0.20;99.90;;;;;;5073644;28;20185;-78
2024/01/08 09:40:43;;;;;;;7.70;2.40;;;0.20;99.90;;;;;;5073136;28;20041;-77
2024/01/08 09:43:09;;;;;;;5.10;2.25;;;0.30;99.90;;;;;;5073554;28;20055;-77
2024/01/08 09:45:42;;;;;;;6.38;2.60;;;1.10;99.90;;;;;;5072492;28;20400;-78
2024/01/08 09:48:10;;;;;;;5.93;2.50;;;0.20;99.90;;;;;;5073376;28;20058;-78
2024/01/08 09:50:37;;;;;;;6.78;2.38;;;0.20;99.90;;;;;;5073332;28;20519;-78
2024/01/08 09:53:04;;;;;;;9.60;2.83;;;0.30;99.90;;;;;;5072715;28;20484;-77
2024/01/08 09:55:30;;;;;;;5.38;2.15;;;0.30;99.90;;;;;;5073060;28;20060;-78
2024/01/08 09:57:56;;;;;;;5.28;2.65;;;0.30;99.90;;;;;;5072867;28;20541;-78
2024/01/08 10:00:22;;;;;;;6.15;2.63;;;0.40;99.90;;;;;;5073088;28;20052;-78
2024/01/08 10:02:55;;;;;;;7.72;2.50;;;0.30;99.90;;;;;;5071429;28;20429;-77
2024/01/08 10:05:21;;;;;;;9.18;3.03;;;0.40;99.90;;;;;;5062369;28;20132;-77
2024/01/08 10:07:47;;;;;;;6.22;2.63;;;0.40;99.90;;;;;;5053015;28;20041;-75
2024/01/08 10:10:13;;;;;;;6.38;3.22;;;0.40;99.90;;;;;;5051608;28;20144;-75
2024/01/08 10:12:39;;;;;;;6.97;2.85;;;0.40;99.90;;;;;;5052918;28;20041;-77
2024/01/08 10:15:05;;;;;;;5.85;2.28;;;0.40;99.90;;;;;;5051626;28;20040;-78
2024/01/08 10:17:31;;;;;;;7.97;2.42;;;0.50;99.90;;;;;;5052922;28;20092;-78
2024/01/08 10:20:08;;;;;;;6.60;2.72;;;0.50;99.90;;;;;;5051441;28;20076;-77
2024/01/08 10:22:34;;;;;;;7.15;2.30;;;0.50;99.90;;;;;;5052944;28;20397;-78
2024/01/08 10:25:02;;;;;;;6.07;2.72;;;0.50;99.90;;;;;;5035386;28;20060;-78
2024/01/08 10:27:29;;;;;;;6.70;2.95;;;0.60;99.90;;;;;;5052880;28;20097;-75
2024/01/08 10:29:56;;;;;;;4.40;2.22;;;0.50;99.90;;;;;;5052823;28;20400;-76
2024/01/08 10:32:25;;;;;;;5.63;2.83;;;0.60;99.90;;;;;;5065188;28;20041;-75
2024/01/08 10:34:51;;;;;;;4.97;2.50;;;0.60;99.90;;;;;;5051398;28;20539;-75
2024/01/08 10:37:18;;;;;;;4.85;2.05;;;1.10;99.90;;;;;;5050759;28;20102;-75
2024/01/08 10:39:47;;;;;;;5.35;2.53;;;0.60;99.90;;;;;;5049670;28;20505;-75
2024/01/08 10:42:16;;;;;;;7.40;2.50;;;0.60;99.90;;;;;;5050764;28;20075;-75
2024/01/08 10:44:43;;;;;;;7.30;2.50;;;0.70;99.90;;;;;;5052396;28;20500;-76
2024/01/08 10:47:17;;;;;;;6.15;2.78;;;0.60;99.90;;;;;;5052284;28;20051;-76
2024/01/08 10:49:48;;;;;;;;;;;1.70;99.90;;;;;;5061298;28;20157;-76
2024/01/08 10:52:26;;;;;;;5.57;2.30;;;0.60;99.90;;;;;;5053325;28;20008;-76
2024/01/08 10:55:00;;;;;;;5.30;2.13;;;0.60;99.90;;;;;;5034342;28;20409;-76
2024/01/08 10:57:29;;;;;;;;;;;0.60;99.90;;;;;;5063872;28;20047;-76
2024/01/08 10:59:56;;;;;;;5.35;2.38;;;0.70;99.90;;;;;;5051245;28;20027;-76
2024/01/08 11:02:22;;;;;;;7.00;2.58;;;0.70;99.90;;;;;;5059079;28;20044;-77
2024/01/08 11:04:48;;;;;;;5.60;2.67;;;1.30;99.90;;;;;;5070047;28;20139;-76
2024/01/08 11:07:19;;;;;;;5.22;2.60;;;0.70;99.90;;;;;;5071290;28;20040;-76
2024/01/08 11:09:47;;;;;;;9.10;2.70;;;0.70;99.90;;;;;;5069297;28;20048;-76
2024/01/08 11:12:14;;;;;;;5.78;2.40;;;0.80;99.90;;;;;;5050841;28;20114;-76
2024/01/08 11:14:45;;;;;;;5.28;2.55;;;0.70;99.90;;;;;;5059504;28;20504;-76
2024/01/08 11:17:14;;;;;;;8.23;3.42;;;1.30;99.90;;;;;;5054417;28;20408;-76
2024/01/08 11:19:45;;;;;;;8.35;2.42;;;0.70;99.90;;;;;;5070562;28;20044;-76
2024/01/08 11:22:11;;;;;;;8.27;2.40;;;1.10;99.90;;;;;;5071077;28;20052;-76
2024/01/08 11:24:38;;;;;;;5.50;2.70;;;0.70;99.90;;;;;;5071031;28;20055;-76
2024/01/08 11:27:04;;;;;;;5.20;2.45;;;0.70;99.90;;;;;;5070206;28;20527;-76
2024/01/08 11:29:32;;;;;;;6.63;2.63;;;0.70;99.90;;;;;;5070321;28;20041;-76
2024/01/08 11:32:28;;;;;;;7.13;2.80;;;0.80;99.90;;;;;;5070705;28;20052;-76
2024/01/08 11:35:00;;;;;;;7.03;2.80;;;0.70;99.90;;;;;;5054537;28;20135;-77
2024/01/08 11:37:37;;;;;;;6.22;2.75;;;0.80;99.90;;;;;;5068179;28;20049;-76
2024/01/08 11:40:19;;;;;;;8.70;2.47;;;0.80;99.90;;;;;;5054266;28;20056;-76
2024/01/08 11:42:45;;;;;;;8.15;2.90;;;0.90;99.90;;;;;;5070811;28;20048;-76
2024/01/08 11:45:12;;;;;;;5.60;2.50;;;0.90;99.90;;;;;;5073410;28;20048;-76
2024/01/08 11:47:38;;;;;;;6.40;2.50;;;1.10;99.90;;;;;;5070961;28;20113;-76
2024/01/08 11:50:08;;;;;;;5.38;2.72;;;1.10;99.90;;;;;;5052445;28;20041;-76
2024/01/08 11:52:36;;;;;;;6.68;2.70;;;1.20;99.90;;;;;;5074472;28;20097;-76
2024/01/08 11:55:04;;;;;;;7.45;2.40;;;1.20;99.90;;;;;;5049174;28;20045;-76
2024/01/08 11:57:30;;;;;;;5.00;2.35;;;1.20;99.90;;;;;;5059093;28;20056;-76
2024/01/08 11:59:56;;;;;;;5.93;2.55;;;1.20;99.90;;;;;;5058958;28;20040;-78
2024/01/08 12:02:24;;;;;;;6.68;2.67;;;1.20;99.90;;;;;;5075842;28;20051;-76
2024/01/08 12:04:58;;;;;;;4.25;2.05;;;1.10;99.90;;;;;;5066921;28;20041;-80
2024/01/08 12:07:28;;;;;;;8.70;2.50;;;1.10;99.90;;;;;;5058314;28;20055;-80
2024/01/08 12:09:57;;;;;;;4.85;2.00;;;1.10;99.90;;;;;;5055101;28;20408;-77
2024/01/08 12:12:24;;;;;;;5.75;2.92;;;1.90;99.90;;;;;;5055300;28;20495;-77
2024/01/08 12:14:51;;;;;;;7.85;2.50;;;1.10;99.90;;;;;;5057056;28;20055;-77
2024/01/08 12:17:18;;;;;;;7.03;2.25;;;1.10;99.90;;;;;;5059014;28;20052;-77
2024/01/08 12:19:54;;;;;;;5.57;2.90;;;1.10;99.90;;;;;;5059456;28;20583;-77
2024/01/08 12:22:21;;;;;;;6.75;3.10;;;1.10;99.90;;;;;;5057554;28;20040;-77
2024/01/08 12:24:49;;;;;;;6.30;2.22;;;1.10;99.90;;;;;;5063751;28;20048;-77
2024/01/08 12:27:17;;;;;;;7.63;3.10;;;1.00;99.90;;;;;;5063883;28;20076;-77
2024/01/08 12:29:43;;;;;;;5.10;2.67;;;1.00;99.90;;;;;;5064987;28;20110;-76
2024/01/08 12:32:10;;;;;;;11.02;3.28;;;1.70;99.90;;;;;;5058872;28;20056;-77
2024/01/08 12:34:37;;;;;;;6.43;2.60;;;1.00;99.90;;;;;;5061384;28;20049;-76
2024/01/08 12:37:04;;;;;;;6.32;2.90;;;1.00;99.90;;;;;;5060455;28;20078;-77
2024/01/08 12:39:31;;;;;;;5.88;2.80;;;1.10;99.90;;;;;;5066682;28;20037;-77
2024/01/08 12:41:58;;;;;;;7.13;2.72;;;1.60;99.90;;;;;;5062524;28;20123;-77
2024/01/08 12:44:30;;;;;;;6.40;2.88;;;1.20;99.90;;;;;;5068009;28;20052;-77
2024/01/08 12:46:56;;;;;;;6.00;2.60;;;1.20;99.90;;;;;;5062561;28;20053;-77
2024/01/08 12:49:26;;;;;;;5.93;2.38;;;1.30;99.90;;;;;;5065793;28;20045;-77